| State | Missouri | Latest | Low (671 cfs) | |
| River | Saint Francis River | Rating | Observed | Estimated |
| Updated | 2026-05-05 8:00 (24 minutes ago) | Flood - The river is flooding. Obstacles can be treacherous or deadly. The river should be avoided at this stage for casual trips and definitely for the inexperienced. Trips should be attempted only with protective gear and equipment.Flood | (none) | 4333 |
| Discharge | 671 cfs (median: 1070 cfs) | High - The river is high and potentially dangerous, especially for the young and / or inexperienced. Normal stream obstacles are sometimes difficult to navigate. Extended distances can be attempted, but canoe travel may not be advisable.High | (none) | 793 |
| Height | 5.97 feet | Good - Conditions are ideal for a canoe or kayak. Boats typically will drag on fewer than one-quarter of riffles, if at all, and portages are unnecessary or rare. Normal float lengths can be attempted without a problem.Good | 2000 | 285 |
| Trend | Falling (falling over 24 hours) | Low - River is low but can still be floated. Some riffles are okay but most come with significant dragging and might need a portage. Float lengths should be reduced to accommodate low flow, dragging, and portages.Low | (none) | 126 |
| USGS | USGS Site ( Duck Duck Go Maps) | Poor - River is too low to float comfortably. Most or all riffles will drag or must be portaged and some obstacles (such as slick shelf rock) cause undue problems. Avoid the river at this stage for casual paddling trips.Poor | (none) | 28 |
A total of 2 rows are displayed.
| Miles | 3.3 |
| Trips | 2 |
| People | 3 |
| Dates | 2 |
| Years | 2 |
| Months | 2 |
| Rows | 2 |
| Sources | 2 |
BLG - Bluegill
CCF - Channel Catfish
CP - Chain Pickerel
FWD - Freshwater Drum
GSF - Green Sunfish
KSB - Kentucky Spotted Bass
LMB - Largemouth Bass
LSF - Longear Sunfish
RB - Rock Bass / Goggle Eye
RSF - Redear Sunfish
RT - Rainbow Trout
SMB - Smallmouth Bass
WB - White Bass
WF - Whitefish
WL - WalleyeThe classic River Trips application is still available for use. It is updated with the new system using a data retrofit. It is no longer maintained. The original River Trips application is no longer updated (as of 1 Dec 2016) but can be checked for errors or for the condition of the data before it was converted to the new system.
| Observation | Height | Discharge | Maximum Discharge | Minimum Discharge | Mean Discharge | P05 | P10 | P20 | P25 | P50 (Median) | P75 | P80 | P90 | P95 |
|---|---|---|---|---|---|---|---|---|---|---|---|---|---|---|
| 2026-05-05 08:00 | 5.97 | 671 | 20900 (2017) | 170 (1981) | 2260 | 228 | 284 | 361 | 448 | 1070 | 2220 | 2610 | 5840 | 10000 |
| 2026-05-05 07:30 | 5.98 | 676 | 20900 (2017) | 170 (1981) | 2260 | 228 | 284 | 361 | 448 | 1070 | 2220 | 2610 | 5840 | 10000 |
| 2026-05-05 07:00 | 5.97 | 671 | 20900 (2017) | 170 (1981) | 2260 | 228 | 284 | 361 | 448 | 1070 | 2220 | 2610 | 5840 | 10000 |
| 2026-05-05 06:30 | 5.96 | 666 | 20900 (2017) | 170 (1981) | 2260 | 228 | 284 | 361 | 448 | 1070 | 2220 | 2610 | 5840 | 10000 |
| 2026-05-05 06:00 | 5.98 | 676 | 20900 (2017) | 170 (1981) | 2260 | 228 | 284 | 361 | 448 | 1070 | 2220 | 2610 | 5840 | 10000 |
| 2026-05-05 05:30 | 5.98 | 676 | 20900 (2017) | 170 (1981) | 2260 | 228 | 284 | 361 | 448 | 1070 | 2220 | 2610 | 5840 | 10000 |
| 2026-05-05 05:00 | 5.98 | 676 | 20900 (2017) | 170 (1981) | 2260 | 228 | 284 | 361 | 448 | 1070 | 2220 | 2610 | 5840 | 10000 |
| 2026-05-05 04:30 | 5.99 | 680 | 20900 (2017) | 170 (1981) | 2260 | 228 | 284 | 361 | 448 | 1070 | 2220 | 2610 | 5840 | 10000 |
| 2026-05-05 04:00 | 5.99 | 680 | 20900 (2017) | 170 (1981) | 2260 | 228 | 284 | 361 | 448 | 1070 | 2220 | 2610 | 5840 | 10000 |
| 2026-05-05 03:30 | 5.99 | 680 | 20900 (2017) | 170 (1981) | 2260 | 228 | 284 | 361 | 448 | 1070 | 2220 | 2610 | 5840 | 10000 |
| 2026-05-05 03:00 | 5.99 | 680 | 20900 (2017) | 170 (1981) | 2260 | 228 | 284 | 361 | 448 | 1070 | 2220 | 2610 | 5840 | 10000 |
| 2026-05-05 02:30 | 6.00 | 685 | 20900 (2017) | 170 (1981) | 2260 | 228 | 284 | 361 | 448 | 1070 | 2220 | 2610 | 5840 | 10000 |
| 2026-05-05 02:00 | 6.00 | 685 | 20900 (2017) | 170 (1981) | 2260 | 228 | 284 | 361 | 448 | 1070 | 2220 | 2610 | 5840 | 10000 |
| 2026-05-05 01:30 | 6.01 | 689 | 20900 (2017) | 170 (1981) | 2260 | 228 | 284 | 361 | 448 | 1070 | 2220 | 2610 | 5840 | 10000 |
| 2026-05-05 01:00 | 6.01 | 689 | 20900 (2017) | 170 (1981) | 2260 | 228 | 284 | 361 | 448 | 1070 | 2220 | 2610 | 5840 | 10000 |
| 2026-05-05 00:30 | 6.01 | 689 | 20900 (2017) | 170 (1981) | 2260 | 228 | 284 | 361 | 448 | 1070 | 2220 | 2610 | 5840 | 10000 |
| 2026-05-05 00:00 | 6.01 | 689 | 20900 (2017) | 170 (1981) | 2260 | 228 | 284 | 361 | 448 | 1070 | 2220 | 2610 | 5840 | 10000 |
| 2026-05-04 23:30 | 6.01 | 689 | 20900 (2017) | 170 (1981) | 2260 | 228 | 284 | 361 | 448 | 1070 | 2220 | 2610 | 5840 | 10000 |
| 2026-05-04 23:00 | 6.02 | 694 | 20900 (2017) | 170 (1981) | 2260 | 228 | 284 | 361 | 448 | 1070 | 2220 | 2610 | 5840 | 10000 |
| 2026-05-04 22:30 | 6.02 | 694 | 24800 (2013) | 174 (2000) | 2800 | 241 | 300 | 370 | 491 | 1210 | 2680 | 2980 | 7640 | 15700 |
| 2026-05-04 22:00 | 6.02 | 694 | 24800 (2013) | 174 (2000) | 2800 | 241 | 300 | 370 | 491 | 1210 | 2680 | 2980 | 7640 | 15700 |
| 2026-05-04 21:30 | 6.03 | 699 | 24800 (2013) | 174 (2000) | 2800 | 241 | 300 | 370 | 491 | 1210 | 2680 | 2980 | 7640 | 15700 |
| 2026-05-04 21:00 | 6.03 | 699 | 24800 (2013) | 174 (2000) | 2800 | 241 | 300 | 370 | 491 | 1210 | 2680 | 2980 | 7640 | 15700 |
| 2026-05-04 20:30 | 6.03 | 699 | 24800 (2013) | 174 (2000) | 2800 | 241 | 300 | 370 | 491 | 1210 | 2680 | 2980 | 7640 | 15700 |
| 2026-05-04 20:00 | 6.03 | 699 | 24800 (2013) | 174 (2000) | 2800 | 241 | 300 | 370 | 491 | 1210 | 2680 | 2980 | 7640 | 15700 |
| 2026-05-04 19:30 | 6.04 | 704 | 24800 (2013) | 174 (2000) | 2800 | 241 | 300 | 370 | 491 | 1210 | 2680 | 2980 | 7640 | 15700 |
| 2026-05-04 19:00 | 6.02 | 694 | 24800 (2013) | 174 (2000) | 2800 | 241 | 300 | 370 | 491 | 1210 | 2680 | 2980 | 7640 | 15700 |
| 2026-05-04 18:30 | 6.01 | 689 | 24800 (2013) | 174 (2000) | 2800 | 241 | 300 | 370 | 491 | 1210 | 2680 | 2980 | 7640 | 15700 |
| 2026-05-04 18:00 | 6.02 | 694 | 24800 (2013) | 174 (2000) | 2800 | 241 | 300 | 370 | 491 | 1210 | 2680 | 2980 | 7640 | 15700 |
| 2026-05-04 17:30 | 6.03 | 699 | 24800 (2013) | 174 (2000) | 2800 | 241 | 300 | 370 | 491 | 1210 | 2680 | 2980 | 7640 | 15700 |
| 2026-05-04 17:00 | 6.01 | 689 | 24800 (2013) | 174 (2000) | 2800 | 241 | 300 | 370 | 491 | 1210 | 2680 | 2980 | 7640 | 15700 |
| 2026-05-04 16:30 | 6.02 | 694 | 24800 (2013) | 174 (2000) | 2800 | 241 | 300 | 370 | 491 | 1210 | 2680 | 2980 | 7640 | 15700 |
| 2026-05-04 16:00 | 6.02 | 694 | 24800 (2013) | 174 (2000) | 2800 | 241 | 300 | 370 | 491 | 1210 | 2680 | 2980 | 7640 | 15700 |
| 2026-05-04 15:30 | 6.03 | 699 | 24800 (2013) | 174 (2000) | 2800 | 241 | 300 | 370 | 491 | 1210 | 2680 | 2980 | 7640 | 15700 |
| 2026-05-04 15:00 | 6.03 | 699 | 24800 (2013) | 174 (2000) | 2800 | 241 | 300 | 370 | 491 | 1210 | 2680 | 2980 | 7640 | 15700 |
| 2026-05-04 14:30 | 6.03 | 699 | 24800 (2013) | 174 (2000) | 2800 | 241 | 300 | 370 | 491 | 1210 | 2680 | 2980 | 7640 | 15700 |
| 2026-05-04 14:00 | 6.02 | 694 | 24800 (2013) | 174 (2000) | 2800 | 241 | 300 | 370 | 491 | 1210 | 2680 | 2980 | 7640 | 15700 |
| 2026-05-04 13:30 | 6.05 | 708 | 24800 (2013) | 174 (2000) | 2800 | 241 | 300 | 370 | 491 | 1210 | 2680 | 2980 | 7640 | 15700 |
| 2026-05-04 13:00 | 6.03 | 699 | 24800 (2013) | 174 (2000) | 2800 | 241 | 300 | 370 | 491 | 1210 | 2680 | 2980 | 7640 | 15700 |
| 2026-05-04 12:30 | 6.01 | 689 | 24800 (2013) | 174 (2000) | 2800 | 241 | 300 | 370 | 491 | 1210 | 2680 | 2980 | 7640 | 15700 |
| 2026-05-04 12:00 | 6.04 | 704 | 24800 (2013) | 174 (2000) | 2800 | 241 | 300 | 370 | 491 | 1210 | 2680 | 2980 | 7640 | 15700 |
| 2026-05-04 11:30 | 6.04 | 704 | 24800 (2013) | 174 (2000) | 2800 | 241 | 300 | 370 | 491 | 1210 | 2680 | 2980 | 7640 | 15700 |
| 2026-05-04 11:00 | 6.06 | 713 | 24800 (2013) | 174 (2000) | 2800 | 241 | 300 | 370 | 491 | 1210 | 2680 | 2980 | 7640 | 15700 |
| 2026-05-04 10:30 | 6.07 | 718 | 24800 (2013) | 174 (2000) | 2800 | 241 | 300 | 370 | 491 | 1210 | 2680 | 2980 | 7640 | 15700 |
| 2026-05-04 10:00 | 6.08 | 723 | 24800 (2013) | 174 (2000) | 2800 | 241 | 300 | 370 | 491 | 1210 | 2680 | 2980 | 7640 | 15700 |
| 2026-05-04 09:30 | 6.09 | 727 | 24800 (2013) | 174 (2000) | 2800 | 241 | 300 | 370 | 491 | 1210 | 2680 | 2980 | 7640 | 15700 |
| 2026-05-04 09:00 | 6.10 | 732 | 24800 (2013) | 174 (2000) | 2800 | 241 | 300 | 370 | 491 | 1210 | 2680 | 2980 | 7640 | 15700 |
| 2026-05-04 08:30 | 6.10 | 732 | 24800 (2013) | 174 (2000) | 2800 | 241 | 300 | 370 | 491 | 1210 | 2680 | 2980 | 7640 | 15700 |
| 2026-05-04 08:00 | 6.10 | 732 | 24800 (2013) | 174 (2000) | 2800 | 241 | 300 | 370 | 491 | 1210 | 2680 | 2980 | 7640 | 15700 |
| 2026-05-04 07:30 | 6.11 | 737 | 24800 (2013) | 174 (2000) | 2800 | 241 | 300 | 370 | 491 | 1210 | 2680 | 2980 | 7640 | 15700 |
| 2026-05-04 07:00 | 6.11 | 737 | 24800 (2013) | 174 (2000) | 2800 | 241 | 300 | 370 | 491 | 1210 | 2680 | 2980 | 7640 | 15700 |
| 2026-05-04 06:30 | 6.11 | 737 | 24800 (2013) | 174 (2000) | 2800 | 241 | 300 | 370 | 491 | 1210 | 2680 | 2980 | 7640 | 15700 |
| 2026-05-04 06:00 | 6.12 | 742 | 24800 (2013) | 174 (2000) | 2800 | 241 | 300 | 370 | 491 | 1210 | 2680 | 2980 | 7640 | 15700 |
| 2026-05-04 05:30 | 6.12 | 742 | 24800 (2013) | 174 (2000) | 2800 | 241 | 300 | 370 | 491 | 1210 | 2680 | 2980 | 7640 | 15700 |
| 2026-05-04 05:00 | 6.12 | 742 | 24800 (2013) | 174 (2000) | 2800 | 241 | 300 | 370 | 491 | 1210 | 2680 | 2980 | 7640 | 15700 |
| 2026-05-04 04:30 | 6.12 | 742 | 24800 (2013) | 174 (2000) | 2800 | 241 | 300 | 370 | 491 | 1210 | 2680 | 2980 | 7640 | 15700 |
| 2026-05-04 04:00 | 6.13 | 747 | 24800 (2013) | 174 (2000) | 2800 | 241 | 300 | 370 | 491 | 1210 | 2680 | 2980 | 7640 | 15700 |
| 2026-05-04 03:30 | 6.13 | 747 | 24800 (2013) | 174 (2000) | 2800 | 241 | 300 | 370 | 491 | 1210 | 2680 | 2980 | 7640 | 15700 |
| 2026-05-04 03:00 | 6.13 | 747 | 24800 (2013) | 174 (2000) | 2800 | 241 | 300 | 370 | 491 | 1210 | 2680 | 2980 | 7640 | 15700 |
| 2026-05-04 02:30 | 6.14 | 752 | 24800 (2013) | 174 (2000) | 2800 | 241 | 300 | 370 | 491 | 1210 | 2680 | 2980 | 7640 | 15700 |
| 2026-05-04 02:00 | 6.14 | 752 | 24800 (2013) | 174 (2000) | 2800 | 241 | 300 | 370 | 491 | 1210 | 2680 | 2980 | 7640 | 15700 |
| 2026-05-04 01:30 | 6.14 | 752 | 24800 (2013) | 174 (2000) | 2800 | 241 | 300 | 370 | 491 | 1210 | 2680 | 2980 | 7640 | 15700 |
| 2026-05-04 01:00 | 6.14 | 752 | 24800 (2013) | 174 (2000) | 2800 | 241 | 300 | 370 | 491 | 1210 | 2680 | 2980 | 7640 | 15700 |
| 2026-05-04 00:30 | 6.15 | 757 | 24800 (2013) | 174 (2000) | 2800 | 241 | 300 | 370 | 491 | 1210 | 2680 | 2980 | 7640 | 15700 |
| 2026-05-04 00:00 | 6.15 | 757 | 24800 (2013) | 174 (2000) | 2800 | 241 | 300 | 370 | 491 | 1210 | 2680 | 2980 | 7640 | 15700 |
| 2026-05-03 23:30 | 6.15 | 757 | 24800 (2013) | 174 (2000) | 2800 | 241 | 300 | 370 | 491 | 1210 | 2680 | 2980 | 7640 | 15700 |
| 2026-05-03 23:00 | 6.16 | 762 | 24800 (2013) | 174 (2000) | 2800 | 241 | 300 | 370 | 491 | 1210 | 2680 | 2980 | 7640 | 15700 |
| 2026-05-03 22:30 | 6.16 | 762 | 23900 (2011) | 180 (2000) | 2810 | 248 | 316 | 423 | 513 | 1310 | 3000 | 4220 | 6870 | 14900 |
| 2026-05-03 22:00 | 6.16 | 762 | 23900 (2011) | 180 (2000) | 2810 | 248 | 316 | 423 | 513 | 1310 | 3000 | 4220 | 6870 | 14900 |
| 2026-05-03 21:30 | 6.16 | 762 | 23900 (2011) | 180 (2000) | 2810 | 248 | 316 | 423 | 513 | 1310 | 3000 | 4220 | 6870 | 14900 |
| 2026-05-03 21:00 | 6.17 | 767 | 23900 (2011) | 180 (2000) | 2810 | 248 | 316 | 423 | 513 | 1310 | 3000 | 4220 | 6870 | 14900 |
| 2026-05-03 20:30 | 6.17 | 767 | 23900 (2011) | 180 (2000) | 2810 | 248 | 316 | 423 | 513 | 1310 | 3000 | 4220 | 6870 | 14900 |
| 2026-05-03 20:00 | 6.18 | 771 | 23900 (2011) | 180 (2000) | 2810 | 248 | 316 | 423 | 513 | 1310 | 3000 | 4220 | 6870 | 14900 |
| 2026-05-03 19:30 | 6.18 | 771 | 23900 (2011) | 180 (2000) | 2810 | 248 | 316 | 423 | 513 | 1310 | 3000 | 4220 | 6870 | 14900 |
| 2026-05-03 19:00 | 6.18 | 771 | 23900 (2011) | 180 (2000) | 2810 | 248 | 316 | 423 | 513 | 1310 | 3000 | 4220 | 6870 | 14900 |
| 2026-05-03 18:30 | 6.18 | 771 | 23900 (2011) | 180 (2000) | 2810 | 248 | 316 | 423 | 513 | 1310 | 3000 | 4220 | 6870 | 14900 |
| 2026-05-03 18:00 | 6.18 | 771 | 23900 (2011) | 180 (2000) | 2810 | 248 | 316 | 423 | 513 | 1310 | 3000 | 4220 | 6870 | 14900 |
| 2026-05-03 17:30 | 6.15 | 757 | 23900 (2011) | 180 (2000) | 2810 | 248 | 316 | 423 | 513 | 1310 | 3000 | 4220 | 6870 | 14900 |
| 2026-05-03 17:00 | 6.16 | 762 | 23900 (2011) | 180 (2000) | 2810 | 248 | 316 | 423 | 513 | 1310 | 3000 | 4220 | 6870 | 14900 |
| 2026-05-03 16:30 | 6.20 | 781 | 23900 (2011) | 180 (2000) | 2810 | 248 | 316 | 423 | 513 | 1310 | 3000 | 4220 | 6870 | 14900 |
| 2026-05-03 16:00 | 6.16 | 762 | 23900 (2011) | 180 (2000) | 2810 | 248 | 316 | 423 | 513 | 1310 | 3000 | 4220 | 6870 | 14900 |
| 2026-05-03 15:30 | 6.18 | 771 | 23900 (2011) | 180 (2000) | 2810 | 248 | 316 | 423 | 513 | 1310 | 3000 | 4220 | 6870 | 14900 |
| 2026-05-03 15:00 | 6.18 | 771 | 23900 (2011) | 180 (2000) | 2810 | 248 | 316 | 423 | 513 | 1310 | 3000 | 4220 | 6870 | 14900 |
| 2026-05-03 14:30 | 6.18 | 771 | 23900 (2011) | 180 (2000) | 2810 | 248 | 316 | 423 | 513 | 1310 | 3000 | 4220 | 6870 | 14900 |
| 2026-05-03 14:00 | 6.22 | 792 | 23900 (2011) | 180 (2000) | 2810 | 248 | 316 | 423 | 513 | 1310 | 3000 | 4220 | 6870 | 14900 |
| 2026-05-03 13:30 | 6.19 | 776 | 23900 (2011) | 180 (2000) | 2810 | 248 | 316 | 423 | 513 | 1310 | 3000 | 4220 | 6870 | 14900 |
| 2026-05-03 13:00 | 6.22 | 792 | 23900 (2011) | 180 (2000) | 2810 | 248 | 316 | 423 | 513 | 1310 | 3000 | 4220 | 6870 | 14900 |
| 2026-05-03 12:30 | 6.19 | 776 | 23900 (2011) | 180 (2000) | 2810 | 248 | 316 | 423 | 513 | 1310 | 3000 | 4220 | 6870 | 14900 |
| 2026-05-03 12:00 | 6.20 | 781 | 23900 (2011) | 180 (2000) | 2810 | 248 | 316 | 423 | 513 | 1310 | 3000 | 4220 | 6870 | 14900 |
| 2026-05-03 11:30 | 6.20 | 781 | 23900 (2011) | 180 (2000) | 2810 | 248 | 316 | 423 | 513 | 1310 | 3000 | 4220 | 6870 | 14900 |
| 2026-05-03 11:00 | 6.21 | 786 | 23900 (2011) | 180 (2000) | 2810 | 248 | 316 | 423 | 513 | 1310 | 3000 | 4220 | 6870 | 14900 |
| 2026-05-03 10:30 | 6.21 | 786 | 23900 (2011) | 180 (2000) | 2810 | 248 | 316 | 423 | 513 | 1310 | 3000 | 4220 | 6870 | 14900 |
| 2026-05-03 10:00 | 6.22 | 792 | 23900 (2011) | 180 (2000) | 2810 | 248 | 316 | 423 | 513 | 1310 | 3000 | 4220 | 6870 | 14900 |
| 2026-05-03 09:30 | 6.22 | 792 | 23900 (2011) | 180 (2000) | 2810 | 248 | 316 | 423 | 513 | 1310 | 3000 | 4220 | 6870 | 14900 |
| 2026-05-03 09:00 | 6.26 | 812 | 23900 (2011) | 180 (2000) | 2810 | 248 | 316 | 423 | 513 | 1310 | 3000 | 4220 | 6870 | 14900 |
| 2026-05-03 08:30 | 6.26 | 812 | 23900 (2011) | 180 (2000) | 2810 | 248 | 316 | 423 | 513 | 1310 | 3000 | 4220 | 6870 | 14900 |
| 2026-05-03 08:00 | 6.26 | 812 | 23900 (2011) | 180 (2000) | 2810 | 248 | 316 | 423 | 513 | 1310 | 3000 | 4220 | 6870 | 14900 |
| 2026-05-03 07:30 | 6.27 | 817 | 23900 (2011) | 180 (2000) | 2810 | 248 | 316 | 423 | 513 | 1310 | 3000 | 4220 | 6870 | 14900 |
| 2026-05-03 07:00 | 6.27 | 817 | 23900 (2011) | 180 (2000) | 2810 | 248 | 316 | 423 | 513 | 1310 | 3000 | 4220 | 6870 | 14900 |
| 2026-05-03 06:30 | 6.28 | 822 | 23900 (2011) | 180 (2000) | 2810 | 248 | 316 | 423 | 513 | 1310 | 3000 | 4220 | 6870 | 14900 |
| 2026-05-03 06:00 | 6.28 | 822 | 23900 (2011) | 180 (2000) | 2810 | 248 | 316 | 423 | 513 | 1310 | 3000 | 4220 | 6870 | 14900 |
| 2026-05-03 05:30 | 6.28 | 822 | 23900 (2011) | 180 (2000) | 2810 | 248 | 316 | 423 | 513 | 1310 | 3000 | 4220 | 6870 | 14900 |
| 2026-05-03 05:00 | 6.29 | 827 | 23900 (2011) | 180 (2000) | 2810 | 248 | 316 | 423 | 513 | 1310 | 3000 | 4220 | 6870 | 14900 |
| 2026-05-03 04:30 | 6.29 | 827 | 23900 (2011) | 180 (2000) | 2810 | 248 | 316 | 423 | 513 | 1310 | 3000 | 4220 | 6870 | 14900 |
| 2026-05-03 04:00 | 6.29 | 827 | 23900 (2011) | 180 (2000) | 2810 | 248 | 316 | 423 | 513 | 1310 | 3000 | 4220 | 6870 | 14900 |
| 2026-05-03 03:30 | 6.30 | 833 | 23900 (2011) | 180 (2000) | 2810 | 248 | 316 | 423 | 513 | 1310 | 3000 | 4220 | 6870 | 14900 |
| 2026-05-03 03:00 | 6.30 | 833 | 23900 (2011) | 180 (2000) | 2810 | 248 | 316 | 423 | 513 | 1310 | 3000 | 4220 | 6870 | 14900 |
| 2026-05-03 02:30 | 6.31 | 838 | 23900 (2011) | 180 (2000) | 2810 | 248 | 316 | 423 | 513 | 1310 | 3000 | 4220 | 6870 | 14900 |
| 2026-05-03 02:00 | 6.31 | 838 | 23900 (2011) | 180 (2000) | 2810 | 248 | 316 | 423 | 513 | 1310 | 3000 | 4220 | 6870 | 14900 |
| 2026-05-03 01:30 | 6.31 | 838 | 23900 (2011) | 180 (2000) | 2810 | 248 | 316 | 423 | 513 | 1310 | 3000 | 4220 | 6870 | 14900 |
| 2026-05-03 01:00 | 6.32 | 843 | 23900 (2011) | 180 (2000) | 2810 | 248 | 316 | 423 | 513 | 1310 | 3000 | 4220 | 6870 | 14900 |
| 2026-05-03 00:30 | 6.32 | 843 | 23900 (2011) | 180 (2000) | 2810 | 248 | 316 | 423 | 513 | 1310 | 3000 | 4220 | 6870 | 14900 |
| 2026-05-03 00:00 | 6.32 | 843 | 23900 (2011) | 180 (2000) | 2810 | 248 | 316 | 423 | 513 | 1310 | 3000 | 4220 | 6870 | 14900 |
| 2026-05-02 23:30 | 6.33 | 848 | 23900 (2011) | 180 (2000) | 2810 | 248 | 316 | 423 | 513 | 1310 | 3000 | 4220 | 6870 | 14900 |
| 2026-05-02 23:00 | 6.33 | 848 | 23900 (2011) | 180 (2000) | 2810 | 248 | 316 | 423 | 513 | 1310 | 3000 | 4220 | 6870 | 14900 |
| 2026-05-02 22:30 | 6.34 | 854 | 34500 (2011) | 187 (2000) | 2890 | 253 | 313 | 442 | 539 | 1150 | 2640 | 2940 | 9690 | 13700 |
| 2026-05-02 22:00 | 6.34 | 854 | 34500 (2011) | 187 (2000) | 2890 | 253 | 313 | 442 | 539 | 1150 | 2640 | 2940 | 9690 | 13700 |
| 2026-05-02 21:30 | 6.35 | 859 | 34500 (2011) | 187 (2000) | 2890 | 253 | 313 | 442 | 539 | 1150 | 2640 | 2940 | 9690 | 13700 |
| 2026-05-02 21:00 | 6.35 | 859 | 34500 (2011) | 187 (2000) | 2890 | 253 | 313 | 442 | 539 | 1150 | 2640 | 2940 | 9690 | 13700 |
| 2026-05-02 20:30 | 6.35 | 859 | 34500 (2011) | 187 (2000) | 2890 | 253 | 313 | 442 | 539 | 1150 | 2640 | 2940 | 9690 | 13700 |
| 2026-05-02 20:00 | 6.36 | 864 | 34500 (2011) | 187 (2000) | 2890 | 253 | 313 | 442 | 539 | 1150 | 2640 | 2940 | 9690 | 13700 |
| 2026-05-02 19:30 | 6.36 | 864 | 34500 (2011) | 187 (2000) | 2890 | 253 | 313 | 442 | 539 | 1150 | 2640 | 2940 | 9690 | 13700 |
| 2026-05-02 19:00 | 6.37 | 869 | 34500 (2011) | 187 (2000) | 2890 | 253 | 313 | 442 | 539 | 1150 | 2640 | 2940 | 9690 | 13700 |
| 2026-05-02 18:30 | 6.38 | 875 | 34500 (2011) | 187 (2000) | 2890 | 253 | 313 | 442 | 539 | 1150 | 2640 | 2940 | 9690 | 13700 |
| 2026-05-02 18:00 | 6.38 | 875 | 34500 (2011) | 187 (2000) | 2890 | 253 | 313 | 442 | 539 | 1150 | 2640 | 2940 | 9690 | 13700 |
| 2026-05-02 17:30 | 6.39 | 880 | 34500 (2011) | 187 (2000) | 2890 | 253 | 313 | 442 | 539 | 1150 | 2640 | 2940 | 9690 | 13700 |
| 2026-05-02 17:00 | 6.38 | 875 | 34500 (2011) | 187 (2000) | 2890 | 253 | 313 | 442 | 539 | 1150 | 2640 | 2940 | 9690 | 13700 |
| 2026-05-02 16:30 | 6.40 | 885 | 34500 (2011) | 187 (2000) | 2890 | 253 | 313 | 442 | 539 | 1150 | 2640 | 2940 | 9690 | 13700 |
| 2026-05-02 16:00 | 6.40 | 885 | 34500 (2011) | 187 (2000) | 2890 | 253 | 313 | 442 | 539 | 1150 | 2640 | 2940 | 9690 | 13700 |
| 2026-05-02 15:30 | 6.41 | 891 | 34500 (2011) | 187 (2000) | 2890 | 253 | 313 | 442 | 539 | 1150 | 2640 | 2940 | 9690 | 13700 |
| 2026-05-02 15:00 | 6.41 | 891 | 34500 (2011) | 187 (2000) | 2890 | 253 | 313 | 442 | 539 | 1150 | 2640 | 2940 | 9690 | 13700 |
| 2026-05-02 14:30 | 6.42 | 896 | 34500 (2011) | 187 (2000) | 2890 | 253 | 313 | 442 | 539 | 1150 | 2640 | 2940 | 9690 | 13700 |
| 2026-05-02 14:00 | 6.42 | 896 | 34500 (2011) | 187 (2000) | 2890 | 253 | 313 | 442 | 539 | 1150 | 2640 | 2940 | 9690 | 13700 |
| 2026-05-02 13:30 | 6.42 | 896 | 34500 (2011) | 187 (2000) | 2890 | 253 | 313 | 442 | 539 | 1150 | 2640 | 2940 | 9690 | 13700 |
| 2026-05-02 13:00 | 6.41 | 891 | 34500 (2011) | 187 (2000) | 2890 | 253 | 313 | 442 | 539 | 1150 | 2640 | 2940 | 9690 | 13700 |
| 2026-05-02 12:30 | 6.43 | 902 | 34500 (2011) | 187 (2000) | 2890 | 253 | 313 | 442 | 539 | 1150 | 2640 | 2940 | 9690 | 13700 |
| 2026-05-02 12:00 | 6.42 | 896 | 34500 (2011) | 187 (2000) | 2890 | 253 | 313 | 442 | 539 | 1150 | 2640 | 2940 | 9690 | 13700 |
| 2026-05-02 11:30 | 6.42 | 896 | 34500 (2011) | 187 (2000) | 2890 | 253 | 313 | 442 | 539 | 1150 | 2640 | 2940 | 9690 | 13700 |
| 2026-05-02 11:00 | 6.42 | 896 | 34500 (2011) | 187 (2000) | 2890 | 253 | 313 | 442 | 539 | 1150 | 2640 | 2940 | 9690 | 13700 |
| 2026-05-02 10:30 | 6.45 | 913 | 34500 (2011) | 187 (2000) | 2890 | 253 | 313 | 442 | 539 | 1150 | 2640 | 2940 | 9690 | 13700 |
| 2026-05-02 10:00 | 6.46 | 918 | 34500 (2011) | 187 (2000) | 2890 | 253 | 313 | 442 | 539 | 1150 | 2640 | 2940 | 9690 | 13700 |
| 2026-05-02 09:30 | 6.46 | 918 | 34500 (2011) | 187 (2000) | 2890 | 253 | 313 | 442 | 539 | 1150 | 2640 | 2940 | 9690 | 13700 |
| 2026-05-02 09:00 | 6.47 | 924 | 34500 (2011) | 187 (2000) | 2890 | 253 | 313 | 442 | 539 | 1150 | 2640 | 2940 | 9690 | 13700 |
| 2026-05-02 08:30 | 6.47 | 924 | 34500 (2011) | 187 (2000) | 2890 | 253 | 313 | 442 | 539 | 1150 | 2640 | 2940 | 9690 | 13700 |
| 2026-05-02 08:00 | 6.48 | 929 | 34500 (2011) | 187 (2000) | 2890 | 253 | 313 | 442 | 539 | 1150 | 2640 | 2940 | 9690 | 13700 |
| 2026-05-02 07:30 | 6.48 | 929 | 34500 (2011) | 187 (2000) | 2890 | 253 | 313 | 442 | 539 | 1150 | 2640 | 2940 | 9690 | 13700 |
| 2026-05-02 07:00 | 6.49 | 935 | 34500 (2011) | 187 (2000) | 2890 | 253 | 313 | 442 | 539 | 1150 | 2640 | 2940 | 9690 | 13700 |
| 2026-05-02 06:30 | 6.50 | 940 | 34500 (2011) | 187 (2000) | 2890 | 253 | 313 | 442 | 539 | 1150 | 2640 | 2940 | 9690 | 13700 |
| 2026-05-02 06:00 | 6.50 | 940 | 34500 (2011) | 187 (2000) | 2890 | 253 | 313 | 442 | 539 | 1150 | 2640 | 2940 | 9690 | 13700 |
| 2026-05-02 05:30 | 6.51 | 946 | 34500 (2011) | 187 (2000) | 2890 | 253 | 313 | 442 | 539 | 1150 | 2640 | 2940 | 9690 | 13700 |
| 2026-05-02 05:00 | 6.51 | 946 | 34500 (2011) | 187 (2000) | 2890 | 253 | 313 | 442 | 539 | 1150 | 2640 | 2940 | 9690 | 13700 |
| 2026-05-02 04:30 | 6.52 | 951 | 34500 (2011) | 187 (2000) | 2890 | 253 | 313 | 442 | 539 | 1150 | 2640 | 2940 | 9690 | 13700 |
| 2026-05-02 04:00 | 6.52 | 951 | 34500 (2011) | 187 (2000) | 2890 | 253 | 313 | 442 | 539 | 1150 | 2640 | 2940 | 9690 | 13700 |
| 2026-05-02 03:30 | 6.53 | 957 | 34500 (2011) | 187 (2000) | 2890 | 253 | 313 | 442 | 539 | 1150 | 2640 | 2940 | 9690 | 13700 |
| 2026-05-02 03:00 | 6.53 | 957 | 34500 (2011) | 187 (2000) | 2890 | 253 | 313 | 442 | 539 | 1150 | 2640 | 2940 | 9690 | 13700 |
| 2026-05-02 02:30 | 6.54 | 963 | 34500 (2011) | 187 (2000) | 2890 | 253 | 313 | 442 | 539 | 1150 | 2640 | 2940 | 9690 | 13700 |
| 2026-05-02 02:00 | 6.55 | 968 | 34500 (2011) | 187 (2000) | 2890 | 253 | 313 | 442 | 539 | 1150 | 2640 | 2940 | 9690 | 13700 |
| 2026-05-02 01:30 | 6.55 | 968 | 34500 (2011) | 187 (2000) | 2890 | 253 | 313 | 442 | 539 | 1150 | 2640 | 2940 | 9690 | 13700 |
| 2026-05-02 01:00 | 6.56 | 974 | 34500 (2011) | 187 (2000) | 2890 | 253 | 313 | 442 | 539 | 1150 | 2640 | 2940 | 9690 | 13700 |
| 2026-05-02 00:30 | 6.57 | 980 | 34500 (2011) | 187 (2000) | 2890 | 253 | 313 | 442 | 539 | 1150 | 2640 | 2940 | 9690 | 13700 |
| 2026-05-02 00:00 | 6.57 | 980 | 34500 (2011) | 187 (2000) | 2890 | 253 | 313 | 442 | 539 | 1150 | 2640 | 2940 | 9690 | 13700 |
| 2026-05-01 23:30 | 6.58 | 985 | 34500 (2011) | 187 (2000) | 2890 | 253 | 313 | 442 | 539 | 1150 | 2640 | 2940 | 9690 | 13700 |
| 2026-05-01 23:00 | 6.59 | 991 | 34500 (2011) | 187 (2000) | 2890 | 253 | 313 | 442 | 539 | 1150 | 2640 | 2940 | 9690 | 13700 |
| 2026-05-01 22:30 | 6.59 | 991 | 67700 (2017) | 185 (2000) | 3370 | 262 | 336 | 442 | 524 | 1110 | 3110 | 3510 | 5060 | 11300 |
| 2026-05-01 22:00 | 6.59 | 991 | 67700 (2017) | 185 (2000) | 3370 | 262 | 336 | 442 | 524 | 1110 | 3110 | 3510 | 5060 | 11300 |
| 2026-05-01 21:30 | 6.60 | 997 | 67700 (2017) | 185 (2000) | 3370 | 262 | 336 | 442 | 524 | 1110 | 3110 | 3510 | 5060 | 11300 |
| 2026-05-01 21:00 | 6.61 | 1000 | 67700 (2017) | 185 (2000) | 3370 | 262 | 336 | 442 | 524 | 1110 | 3110 | 3510 | 5060 | 11300 |
| 2026-05-01 20:30 | 6.61 | 1000 | 67700 (2017) | 185 (2000) | 3370 | 262 | 336 | 442 | 524 | 1110 | 3110 | 3510 | 5060 | 11300 |
| 2026-05-01 20:00 | 6.62 | 1010 | 67700 (2017) | 185 (2000) | 3370 | 262 | 336 | 442 | 524 | 1110 | 3110 | 3510 | 5060 | 11300 |
| 2026-05-01 19:30 | 6.63 | 1010 | 67700 (2017) | 185 (2000) | 3370 | 262 | 336 | 442 | 524 | 1110 | 3110 | 3510 | 5060 | 11300 |
| 2026-05-01 19:00 | 6.64 | 1020 | 67700 (2017) | 185 (2000) | 3370 | 262 | 336 | 442 | 524 | 1110 | 3110 | 3510 | 5060 | 11300 |
| 2026-05-01 18:30 | 6.65 | 1030 | 67700 (2017) | 185 (2000) | 3370 | 262 | 336 | 442 | 524 | 1110 | 3110 | 3510 | 5060 | 11300 |
| 2026-05-01 18:00 | 6.65 | 1030 | 67700 (2017) | 185 (2000) | 3370 | 262 | 336 | 442 | 524 | 1110 | 3110 | 3510 | 5060 | 11300 |
| 2026-05-01 17:30 | 6.66 | 1030 | 67700 (2017) | 185 (2000) | 3370 | 262 | 336 | 442 | 524 | 1110 | 3110 | 3510 | 5060 | 11300 |
| 2026-05-01 17:00 | 6.67 | 1040 | 67700 (2017) | 185 (2000) | 3370 | 262 | 336 | 442 | 524 | 1110 | 3110 | 3510 | 5060 | 11300 |
| 2026-05-01 16:30 | 6.68 | 1040 | 67700 (2017) | 185 (2000) | 3370 | 262 | 336 | 442 | 524 | 1110 | 3110 | 3510 | 5060 | 11300 |
| 2026-05-01 16:00 | 6.69 | 1050 | 67700 (2017) | 185 (2000) | 3370 | 262 | 336 | 442 | 524 | 1110 | 3110 | 3510 | 5060 | 11300 |
| 2026-05-01 15:30 | 6.70 | 1060 | 67700 (2017) | 185 (2000) | 3370 | 262 | 336 | 442 | 524 | 1110 | 3110 | 3510 | 5060 | 11300 |
| 2026-05-01 15:00 | 6.71 | 1060 | 67700 (2017) | 185 (2000) | 3370 | 262 | 336 | 442 | 524 | 1110 | 3110 | 3510 | 5060 | 11300 |
| 2026-05-01 14:30 | 6.71 | 1060 | 67700 (2017) | 185 (2000) | 3370 | 262 | 336 | 442 | 524 | 1110 | 3110 | 3510 | 5060 | 11300 |
| 2026-05-01 14:00 | 6.72 | 1070 | 67700 (2017) | 185 (2000) | 3370 | 262 | 336 | 442 | 524 | 1110 | 3110 | 3510 | 5060 | 11300 |
| 2026-05-01 13:30 | 6.73 | 1070 | 67700 (2017) | 185 (2000) | 3370 | 262 | 336 | 442 | 524 | 1110 | 3110 | 3510 | 5060 | 11300 |
| 2026-05-01 13:00 | 6.69 | 1050 | 67700 (2017) | 185 (2000) | 3370 | 262 | 336 | 442 | 524 | 1110 | 3110 | 3510 | 5060 | 11300 |
| 2026-05-01 12:30 | 6.74 | 1080 | 67700 (2017) | 185 (2000) | 3370 | 262 | 336 | 442 | 524 | 1110 | 3110 | 3510 | 5060 | 11300 |
| 2026-05-01 12:00 | 6.75 | 1090 | 67700 (2017) | 185 (2000) | 3370 | 262 | 336 | 442 | 524 | 1110 | 3110 | 3510 | 5060 | 11300 |
| 2026-05-01 11:30 | 6.75 | 1090 | 67700 (2017) | 185 (2000) | 3370 | 262 | 336 | 442 | 524 | 1110 | 3110 | 3510 | 5060 | 11300 |
| 2026-05-01 11:00 | 6.76 | 1090 | 67700 (2017) | 185 (2000) | 3370 | 262 | 336 | 442 | 524 | 1110 | 3110 | 3510 | 5060 | 11300 |
| 2026-05-01 10:30 | 6.77 | 1100 | 67700 (2017) | 185 (2000) | 3370 | 262 | 336 | 442 | 524 | 1110 | 3110 | 3510 | 5060 | 11300 |
| 2026-05-01 10:00 | 6.78 | 1100 | 67700 (2017) | 185 (2000) | 3370 | 262 | 336 | 442 | 524 | 1110 | 3110 | 3510 | 5060 | 11300 |
| 2026-05-01 09:30 | 6.79 | 1110 | 67700 (2017) | 185 (2000) | 3370 | 262 | 336 | 442 | 524 | 1110 | 3110 | 3510 | 5060 | 11300 |
| 2026-05-01 09:00 | 6.77 | 1100 | 67700 (2017) | 185 (2000) | 3370 | 262 | 336 | 442 | 524 | 1110 | 3110 | 3510 | 5060 | 11300 |
| 2026-05-01 08:30 | 6.81 | 1120 | 67700 (2017) | 185 (2000) | 3370 | 262 | 336 | 442 | 524 | 1110 | 3110 | 3510 | 5060 | 11300 |
| 2026-05-01 08:00 | 6.82 | 1130 | 67700 (2017) | 185 (2000) | 3370 | 262 | 336 | 442 | 524 | 1110 | 3110 | 3510 | 5060 | 11300 |
| 2026-05-01 07:30 | 6.83 | 1130 | 67700 (2017) | 185 (2000) | 3370 | 262 | 336 | 442 | 524 | 1110 | 3110 | 3510 | 5060 | 11300 |
| 2026-05-01 07:00 | 6.84 | 1140 | 67700 (2017) | 185 (2000) | 3370 | 262 | 336 | 442 | 524 | 1110 | 3110 | 3510 | 5060 | 11300 |
| 2026-05-01 06:30 | 6.84 | 1140 | 67700 (2017) | 185 (2000) | 3370 | 262 | 336 | 442 | 524 | 1110 | 3110 | 3510 | 5060 | 11300 |
| 2026-05-01 06:00 | 6.86 | 1150 | 67700 (2017) | 185 (2000) | 3370 | 262 | 336 | 442 | 524 | 1110 | 3110 | 3510 | 5060 | 11300 |
| 2026-05-01 05:30 | 6.87 | 1160 | 67700 (2017) | 185 (2000) | 3370 | 262 | 336 | 442 | 524 | 1110 | 3110 | 3510 | 5060 | 11300 |
| 2026-05-01 05:00 | 6.88 | 1170 | 67700 (2017) | 185 (2000) | 3370 | 262 | 336 | 442 | 524 | 1110 | 3110 | 3510 | 5060 | 11300 |
| 2026-05-01 04:30 | 6.89 | 1170 | 67700 (2017) | 185 (2000) | 3370 | 262 | 336 | 442 | 524 | 1110 | 3110 | 3510 | 5060 | 11300 |
| 2026-05-01 04:00 | 6.90 | 1180 | 67700 (2017) | 185 (2000) | 3370 | 262 | 336 | 442 | 524 | 1110 | 3110 | 3510 | 5060 | 11300 |
| 2026-05-01 03:30 | 6.91 | 1180 | 67700 (2017) | 185 (2000) | 3370 | 262 | 336 | 442 | 524 | 1110 | 3110 | 3510 | 5060 | 11300 |
| 2026-05-01 03:00 | 6.92 | 1190 | 67700 (2017) | 185 (2000) | 3370 | 262 | 336 | 442 | 524 | 1110 | 3110 | 3510 | 5060 | 11300 |
| 2026-05-01 02:30 | 6.93 | 1200 | 67700 (2017) | 185 (2000) | 3370 | 262 | 336 | 442 | 524 | 1110 | 3110 | 3510 | 5060 | 11300 |
| 2026-05-01 02:00 | 6.94 | 1200 | 67700 (2017) | 185 (2000) | 3370 | 262 | 336 | 442 | 524 | 1110 | 3110 | 3510 | 5060 | 11300 |
| 2026-05-01 01:30 | 6.95 | 1210 | 67700 (2017) | 185 (2000) | 3370 | 262 | 336 | 442 | 524 | 1110 | 3110 | 3510 | 5060 | 11300 |
| 2026-05-01 01:00 | 6.97 | 1220 | 67700 (2017) | 185 (2000) | 3370 | 262 | 336 | 442 | 524 | 1110 | 3110 | 3510 | 5060 | 11300 |
| 2026-05-01 00:30 | 6.98 | 1230 | 67700 (2017) | 185 (2000) | 3370 | 262 | 336 | 442 | 524 | 1110 | 3110 | 3510 | 5060 | 11300 |
| 2026-05-01 00:00 | 6.99 | 1240 | 67700 (2017) | 185 (2000) | 3370 | 262 | 336 | 442 | 524 | 1110 | 3110 | 3510 | 5060 | 11300 |
| 2026-04-30 23:30 | 7.00 | 1240 | 67700 (2017) | 185 (2000) | 3370 | 262 | 336 | 442 | 524 | 1110 | 3110 | 3510 | 5060 | 11300 |
| 2026-04-30 23:00 | 7.01 | 1250 | 67700 (2017) | 185 (2000) | 3370 | 262 | 336 | 442 | 524 | 1110 | 3110 | 3510 | 5060 | 11300 |
| 2026-04-30 22:30 | 7.02 | 1260 | 113000 (2017) | 183 (2000) | 3750 | 277 | 323 | 476 | 547 | 1060 | 2490 | 2990 | 5570 | 8600 |
| 2026-04-30 22:00 | 7.04 | 1270 | 113000 (2017) | 183 (2000) | 3750 | 277 | 323 | 476 | 547 | 1060 | 2490 | 2990 | 5570 | 8600 |
| 2026-04-30 21:30 | 7.04 | 1270 | 113000 (2017) | 183 (2000) | 3750 | 277 | 323 | 476 | 547 | 1060 | 2490 | 2990 | 5570 | 8600 |
| 2026-04-30 21:00 | 7.06 | 1280 | 113000 (2017) | 183 (2000) | 3750 | 277 | 323 | 476 | 547 | 1060 | 2490 | 2990 | 5570 | 8600 |
| 2026-04-30 20:30 | 7.07 | 1290 | 113000 (2017) | 183 (2000) | 3750 | 277 | 323 | 476 | 547 | 1060 | 2490 | 2990 | 5570 | 8600 |
| 2026-04-30 20:00 | 7.09 | 1300 | 113000 (2017) | 183 (2000) | 3750 | 277 | 323 | 476 | 547 | 1060 | 2490 | 2990 | 5570 | 8600 |
| 2026-04-30 19:30 | 7.10 | 1310 | 113000 (2017) | 183 (2000) | 3750 | 277 | 323 | 476 | 547 | 1060 | 2490 | 2990 | 5570 | 8600 |
| 2026-04-30 19:00 | 7.11 | 1320 | 113000 (2017) | 183 (2000) | 3750 | 277 | 323 | 476 | 547 | 1060 | 2490 | 2990 | 5570 | 8600 |
| 2026-04-30 18:30 | 7.13 | 1330 | 113000 (2017) | 183 (2000) | 3750 | 277 | 323 | 476 | 547 | 1060 | 2490 | 2990 | 5570 | 8600 |
| 2026-04-30 18:00 | 7.15 | 1340 | 113000 (2017) | 183 (2000) | 3750 | 277 | 323 | 476 | 547 | 1060 | 2490 | 2990 | 5570 | 8600 |
| 2026-04-30 17:30 | 7.16 | 1350 | 113000 (2017) | 183 (2000) | 3750 | 277 | 323 | 476 | 547 | 1060 | 2490 | 2990 | 5570 | 8600 |
| 2026-04-30 17:00 | 7.18 | 1360 | 113000 (2017) | 183 (2000) | 3750 | 277 | 323 | 476 | 547 | 1060 | 2490 | 2990 | 5570 | 8600 |
| 2026-04-30 16:30 | 7.19 | 1370 | 113000 (2017) | 183 (2000) | 3750 | 277 | 323 | 476 | 547 | 1060 | 2490 | 2990 | 5570 | 8600 |
| 2026-04-30 16:00 | 7.21 | 1380 | 113000 (2017) | 183 (2000) | 3750 | 277 | 323 | 476 | 547 | 1060 | 2490 | 2990 | 5570 | 8600 |
| 2026-04-30 15:30 | 7.22 | 1390 | 113000 (2017) | 183 (2000) | 3750 | 277 | 323 | 476 | 547 | 1060 | 2490 | 2990 | 5570 | 8600 |
| 2026-04-30 15:00 | 7.24 | 1410 | 113000 (2017) | 183 (2000) | 3750 | 277 | 323 | 476 | 547 | 1060 | 2490 | 2990 | 5570 | 8600 |
| 2026-04-30 14:30 | 7.26 | 1420 | 113000 (2017) | 183 (2000) | 3750 | 277 | 323 | 476 | 547 | 1060 | 2490 | 2990 | 5570 | 8600 |
| 2026-04-30 14:00 | 7.27 | 1430 | 113000 (2017) | 183 (2000) | 3750 | 277 | 323 | 476 | 547 | 1060 | 2490 | 2990 | 5570 | 8600 |
| 2026-04-30 13:30 | 7.28 | 1430 | 113000 (2017) | 183 (2000) | 3750 | 277 | 323 | 476 | 547 | 1060 | 2490 | 2990 | 5570 | 8600 |
| 2026-04-30 13:00 | 7.28 | 1430 | 113000 (2017) | 183 (2000) | 3750 | 277 | 323 | 476 | 547 | 1060 | 2490 | 2990 | 5570 | 8600 |
| 2026-04-30 12:30 | 7.31 | 1450 | 113000 (2017) | 183 (2000) | 3750 | 277 | 323 | 476 | 547 | 1060 | 2490 | 2990 | 5570 | 8600 |
| 2026-04-30 12:00 | 7.33 | 1470 | 113000 (2017) | 183 (2000) | 3750 | 277 | 323 | 476 | 547 | 1060 | 2490 | 2990 | 5570 | 8600 |
| 2026-04-30 11:30 | 7.34 | 1480 | 113000 (2017) | 183 (2000) | 3750 | 277 | 323 | 476 | 547 | 1060 | 2490 | 2990 | 5570 | 8600 |
| 2026-04-30 11:00 | 7.36 | 1490 | 113000 (2017) | 183 (2000) | 3750 | 277 | 323 | 476 | 547 | 1060 | 2490 | 2990 | 5570 | 8600 |
| 2026-04-30 10:30 | 7.37 | 1500 | 113000 (2017) | 183 (2000) | 3750 | 277 | 323 | 476 | 547 | 1060 | 2490 | 2990 | 5570 | 8600 |
| 2026-04-30 10:00 | 7.38 | 1510 | 113000 (2017) | 183 (2000) | 3750 | 277 | 323 | 476 | 547 | 1060 | 2490 | 2990 | 5570 | 8600 |
| 2026-04-30 09:30 | 7.38 | 1510 | 113000 (2017) | 183 (2000) | 3750 | 277 | 323 | 476 | 547 | 1060 | 2490 | 2990 | 5570 | 8600 |
| 2026-04-30 09:00 | 7.40 | 1520 | 113000 (2017) | 183 (2000) | 3750 | 277 | 323 | 476 | 547 | 1060 | 2490 | 2990 | 5570 | 8600 |
| 2026-04-30 08:30 | 7.42 | 1530 | 113000 (2017) | 183 (2000) | 3750 | 277 | 323 | 476 | 547 | 1060 | 2490 | 2990 | 5570 | 8600 |
| 2026-04-30 08:00 | 7.42 | 1530 | 113000 (2017) | 183 (2000) | 3750 | 277 | 323 | 476 | 547 | 1060 | 2490 | 2990 | 5570 | 8600 |
| 2026-04-30 07:30 | 7.43 | 1540 | 113000 (2017) | 183 (2000) | 3750 | 277 | 323 | 476 | 547 | 1060 | 2490 | 2990 | 5570 | 8600 |
| 2026-04-30 07:00 | 7.42 | 1530 | 113000 (2017) | 183 (2000) | 3750 | 277 | 323 | 476 | 547 | 1060 | 2490 | 2990 | 5570 | 8600 |
| 2026-04-30 06:30 | 7.43 | 1540 | 113000 (2017) | 183 (2000) | 3750 | 277 | 323 | 476 | 547 | 1060 | 2490 | 2990 | 5570 | 8600 |
| 2026-04-30 06:00 | 7.42 | 1530 | 113000 (2017) | 183 (2000) | 3750 | 277 | 323 | 476 | 547 | 1060 | 2490 | 2990 | 5570 | 8600 |
| 2026-04-30 05:30 | 7.41 | 1530 | 113000 (2017) | 183 (2000) | 3750 | 277 | 323 | 476 | 547 | 1060 | 2490 | 2990 | 5570 | 8600 |
| 2026-04-30 05:00 | 7.40 | 1520 | 113000 (2017) | 183 (2000) | 3750 | 277 | 323 | 476 | 547 | 1060 | 2490 | 2990 | 5570 | 8600 |
| 2026-04-30 04:30 | 7.38 | 1510 | 113000 (2017) | 183 (2000) | 3750 | 277 | 323 | 476 | 547 | 1060 | 2490 | 2990 | 5570 | 8600 |
| 2026-04-30 04:00 | 7.36 | 1490 | 113000 (2017) | 183 (2000) | 3750 | 277 | 323 | 476 | 547 | 1060 | 2490 | 2990 | 5570 | 8600 |
| 2026-04-30 03:30 | 7.34 | 1480 | 113000 (2017) | 183 (2000) | 3750 | 277 | 323 | 476 | 547 | 1060 | 2490 | 2990 | 5570 | 8600 |
| 2026-04-30 03:00 | 7.31 | 1450 | 113000 (2017) | 183 (2000) | 3750 | 277 | 323 | 476 | 547 | 1060 | 2490 | 2990 | 5570 | 8600 |
| 2026-04-30 02:30 | 7.28 | 1430 | 113000 (2017) | 183 (2000) | 3750 | 277 | 323 | 476 | 547 | 1060 | 2490 | 2990 | 5570 | 8600 |
| 2026-04-30 02:00 | 7.24 | 1410 | 113000 (2017) | 183 (2000) | 3750 | 277 | 323 | 476 | 547 | 1060 | 2490 | 2990 | 5570 | 8600 |
| 2026-04-30 01:30 | 7.21 | 1380 | 113000 (2017) | 183 (2000) | 3750 | 277 | 323 | 476 | 547 | 1060 | 2490 | 2990 | 5570 | 8600 |
| 2026-04-30 01:00 | 7.18 | 1360 | 113000 (2017) | 183 (2000) | 3750 | 277 | 323 | 476 | 547 | 1060 | 2490 | 2990 | 5570 | 8600 |
| 2026-04-30 00:30 | 7.16 | 1350 | 113000 (2017) | 183 (2000) | 3750 | 277 | 323 | 476 | 547 | 1060 | 2490 | 2990 | 5570 | 8600 |
| 2026-04-30 00:00 | 7.14 | 1340 | 113000 (2017) | 183 (2000) | 3750 | 277 | 323 | 476 | 547 | 1060 | 2490 | 2990 | 5570 | 8600 |
| 2026-04-29 23:30 | 7.12 | 1320 | 113000 (2017) | 183 (2000) | 3750 | 277 | 323 | 476 | 547 | 1060 | 2490 | 2990 | 5570 | 8600 |
| 2026-04-29 23:00 | 7.12 | 1320 | 113000 (2017) | 183 (2000) | 3750 | 277 | 323 | 476 | 547 | 1060 | 2490 | 2990 | 5570 | 8600 |
| 2026-04-29 22:30 | 7.12 | 1320 | 35700 (2017) | 193 (2000) | 2390 | 266 | 328 | 459 | 567 | 1060 | 2030 | 2240 | 4820 | 11200 |
| 2026-04-29 22:00 | 7.12 | 1320 | 35700 (2017) | 193 (2000) | 2390 | 266 | 328 | 459 | 567 | 1060 | 2030 | 2240 | 4820 | 11200 |
| 2026-04-29 21:30 | 7.13 | 1330 | 35700 (2017) | 193 (2000) | 2390 | 266 | 328 | 459 | 567 | 1060 | 2030 | 2240 | 4820 | 11200 |
| 2026-04-29 21:00 | 7.14 | 1340 | 35700 (2017) | 193 (2000) | 2390 | 266 | 328 | 459 | 567 | 1060 | 2030 | 2240 | 4820 | 11200 |
| 2026-04-29 20:30 | 7.15 | 1340 | 35700 (2017) | 193 (2000) | 2390 | 266 | 328 | 459 | 567 | 1060 | 2030 | 2240 | 4820 | 11200 |
| 2026-04-29 20:00 | 7.16 | 1350 | 35700 (2017) | 193 (2000) | 2390 | 266 | 328 | 459 | 567 | 1060 | 2030 | 2240 | 4820 | 11200 |
| 2026-04-29 19:30 | 7.18 | 1360 | 35700 (2017) | 193 (2000) | 2390 | 266 | 328 | 459 | 567 | 1060 | 2030 | 2240 | 4820 | 11200 |
| 2026-04-29 19:00 | 7.19 | 1370 | 35700 (2017) | 193 (2000) | 2390 | 266 | 328 | 459 | 567 | 1060 | 2030 | 2240 | 4820 | 11200 |
| 2026-04-29 18:30 | 7.21 | 1380 | 35700 (2017) | 193 (2000) | 2390 | 266 | 328 | 459 | 567 | 1060 | 2030 | 2240 | 4820 | 11200 |
| 2026-04-29 18:00 | 7.23 | 1400 | 35700 (2017) | 193 (2000) | 2390 | 266 | 328 | 459 | 567 | 1060 | 2030 | 2240 | 4820 | 11200 |
| 2026-04-29 17:30 | 7.24 | 1410 | 35700 (2017) | 193 (2000) | 2390 | 266 | 328 | 459 | 567 | 1060 | 2030 | 2240 | 4820 | 11200 |
| 2026-04-29 17:00 | 7.27 | 1430 | 35700 (2017) | 193 (2000) | 2390 | 266 | 328 | 459 | 567 | 1060 | 2030 | 2240 | 4820 | 11200 |
| 2026-04-29 16:30 | 7.28 | 1430 | 35700 (2017) | 193 (2000) | 2390 | 266 | 328 | 459 | 567 | 1060 | 2030 | 2240 | 4820 | 11200 |
| 2026-04-29 16:00 | 7.31 | 1450 | 35700 (2017) | 193 (2000) | 2390 | 266 | 328 | 459 | 567 | 1060 | 2030 | 2240 | 4820 | 11200 |
| 2026-04-29 15:30 | 7.32 | 1460 | 35700 (2017) | 193 (2000) | 2390 | 266 | 328 | 459 | 567 | 1060 | 2030 | 2240 | 4820 | 11200 |
| 2026-04-29 15:00 | 7.33 | 1470 | 35700 (2017) | 193 (2000) | 2390 | 266 | 328 | 459 | 567 | 1060 | 2030 | 2240 | 4820 | 11200 |
| 2026-04-29 14:30 | 7.37 | 1500 | 35700 (2017) | 193 (2000) | 2390 | 266 | 328 | 459 | 567 | 1060 | 2030 | 2240 | 4820 | 11200 |
| 2026-04-29 14:00 | 7.39 | 1510 | 35700 (2017) | 193 (2000) | 2390 | 266 | 328 | 459 | 567 | 1060 | 2030 | 2240 | 4820 | 11200 |
| 2026-04-29 13:30 | 7.40 | 1520 | 35700 (2017) | 193 (2000) | 2390 | 266 | 328 | 459 | 567 | 1060 | 2030 | 2240 | 4820 | 11200 |
| 2026-04-29 13:00 | 7.43 | 1540 | 35700 (2017) | 193 (2000) | 2390 | 266 | 328 | 459 | 567 | 1060 | 2030 | 2240 | 4820 | 11200 |
| 2026-04-29 12:30 | 7.45 | 1560 | 35700 (2017) | 193 (2000) | 2390 | 266 | 328 | 459 | 567 | 1060 | 2030 | 2240 | 4820 | 11200 |
| 2026-04-29 12:00 | 7.47 | 1570 | 35700 (2017) | 193 (2000) | 2390 | 266 | 328 | 459 | 567 | 1060 | 2030 | 2240 | 4820 | 11200 |
| 2026-04-29 11:30 | 7.49 | 1590 | 35700 (2017) | 193 (2000) | 2390 | 266 | 328 | 459 | 567 | 1060 | 2030 | 2240 | 4820 | 11200 |
| 2026-04-29 11:00 | 7.51 | 1600 | 35700 (2017) | 193 (2000) | 2390 | 266 | 328 | 459 | 567 | 1060 | 2030 | 2240 | 4820 | 11200 |
| 2026-04-29 10:30 | 7.52 | 1610 | 35700 (2017) | 193 (2000) | 2390 | 266 | 328 | 459 | 567 | 1060 | 2030 | 2240 | 4820 | 11200 |
| 2026-04-29 10:00 | 7.54 | 1620 | 35700 (2017) | 193 (2000) | 2390 | 266 | 328 | 459 | 567 | 1060 | 2030 | 2240 | 4820 | 11200 |
| 2026-04-29 09:30 | 7.56 | 1640 | 35700 (2017) | 193 (2000) | 2390 | 266 | 328 | 459 | 567 | 1060 | 2030 | 2240 | 4820 | 11200 |
| 2026-04-29 09:00 | 7.56 | 1640 | 35700 (2017) | 193 (2000) | 2390 | 266 | 328 | 459 | 567 | 1060 | 2030 | 2240 | 4820 | 11200 |
| 2026-04-29 08:30 | 7.58 | 1650 | 35700 (2017) | 193 (2000) | 2390 | 266 | 328 | 459 | 567 | 1060 | 2030 | 2240 | 4820 | 11200 |
| 2026-04-29 08:00 | 7.58 | 1650 | 35700 (2017) | 193 (2000) | 2390 | 266 | 328 | 459 | 567 | 1060 | 2030 | 2240 | 4820 | 11200 |
| 2026-04-29 07:30 | 7.58 | 1650 | 35700 (2017) | 193 (2000) | 2390 | 266 | 328 | 459 | 567 | 1060 | 2030 | 2240 | 4820 | 11200 |
| 2026-04-29 07:00 | 7.57 | 1650 | 35700 (2017) | 193 (2000) | 2390 | 266 | 328 | 459 | 567 | 1060 | 2030 | 2240 | 4820 | 11200 |
| 2026-04-29 06:30 | 7.55 | 1630 | 35700 (2017) | 193 (2000) | 2390 | 266 | 328 | 459 | 567 | 1060 | 2030 | 2240 | 4820 | 11200 |
| 2026-04-29 06:00 | 7.51 | 1600 | 35700 (2017) | 193 (2000) | 2390 | 266 | 328 | 459 | 567 | 1060 | 2030 | 2240 | 4820 | 11200 |
| 2026-04-29 05:30 | 7.47 | 1570 | 35700 (2017) | 193 (2000) | 2390 | 266 | 328 | 459 | 567 | 1060 | 2030 | 2240 | 4820 | 11200 |
| 2026-04-29 05:00 | 7.40 | 1520 | 35700 (2017) | 193 (2000) | 2390 | 266 | 328 | 459 | 567 | 1060 | 2030 | 2240 | 4820 | 11200 |
| 2026-04-29 04:30 | 7.32 | 1460 | 35700 (2017) | 193 (2000) | 2390 | 266 | 328 | 459 | 567 | 1060 | 2030 | 2240 | 4820 | 11200 |
| 2026-04-29 04:00 | 7.24 | 1410 | 35700 (2017) | 193 (2000) | 2390 | 266 | 328 | 459 | 567 | 1060 | 2030 | 2240 | 4820 | 11200 |
| 2026-04-29 03:30 | 7.14 | 1340 | 35700 (2017) | 193 (2000) | 2390 | 266 | 328 | 459 | 567 | 1060 | 2030 | 2240 | 4820 | 11200 |
| 2026-04-29 03:00 | 7.07 | 1290 | 35700 (2017) | 193 (2000) | 2390 | 266 | 328 | 459 | 567 | 1060 | 2030 | 2240 | 4820 | 11200 |
| 2026-04-29 02:30 | 7.00 | 1240 | 35700 (2017) | 193 (2000) | 2390 | 266 | 328 | 459 | 567 | 1060 | 2030 | 2240 | 4820 | 11200 |
| 2026-04-29 02:00 | 6.94 | 1200 | 35700 (2017) | 193 (2000) | 2390 | 266 | 328 | 459 | 567 | 1060 | 2030 | 2240 | 4820 | 11200 |
| 2026-04-29 01:30 | 6.89 | 1170 | 35700 (2017) | 193 (2000) | 2390 | 266 | 328 | 459 | 567 | 1060 | 2030 | 2240 | 4820 | 11200 |
| 2026-04-29 01:00 | 6.84 | 1140 | 35700 (2017) | 193 (2000) | 2390 | 266 | 328 | 459 | 567 | 1060 | 2030 | 2240 | 4820 | 11200 |
| 2026-04-29 00:30 | 6.80 | 1120 | 35700 (2017) | 193 (2000) | 2390 | 266 | 328 | 459 | 567 | 1060 | 2030 | 2240 | 4820 | 11200 |
| 2026-04-29 00:00 | 6.75 | 1090 | 35700 (2017) | 193 (2000) | 2390 | 266 | 328 | 459 | 567 | 1060 | 2030 | 2240 | 4820 | 11200 |
| 2026-04-28 23:30 | 6.72 | 1070 | 35700 (2017) | 193 (2000) | 2390 | 266 | 328 | 459 | 567 | 1060 | 2030 | 2240 | 4820 | 11200 |
| 2026-04-28 23:00 | 6.72 | 1070 | 35700 (2017) | 193 (2000) | 2390 | 266 | 328 | 459 | 567 | 1060 | 2030 | 2240 | 4820 | 11200 |
| 2026-04-28 22:30 | 6.63 | 1010 | 36200 (2011) | 192 (1963) | 2300 | 241 | 341 | 475 | 561 | 1070 | 2100 | 2560 | 3700 | 10600 |
| 2026-04-28 22:00 | 6.66 | 1030 | 36200 (2011) | 192 (1963) | 2300 | 241 | 341 | 475 | 561 | 1070 | 2100 | 2560 | 3700 | 10600 |
| 2026-04-28 21:30 | 6.65 | 1030 | 36200 (2011) | 192 (1963) | 2300 | 241 | 341 | 475 | 561 | 1070 | 2100 | 2560 | 3700 | 10600 |
| 2026-04-28 21:00 | 6.65 | 1030 | 36200 (2011) | 192 (1963) | 2300 | 241 | 341 | 475 | 561 | 1070 | 2100 | 2560 | 3700 | 10600 |
| 2026-04-28 20:30 | 6.64 | 1020 | 36200 (2011) | 192 (1963) | 2300 | 241 | 341 | 475 | 561 | 1070 | 2100 | 2560 | 3700 | 10600 |
| 2026-04-28 20:00 | 6.64 | 1020 | 36200 (2011) | 192 (1963) | 2300 | 241 | 341 | 475 | 561 | 1070 | 2100 | 2560 | 3700 | 10600 |
| 2026-04-28 19:30 | 6.63 | 1010 | 36200 (2011) | 192 (1963) | 2300 | 241 | 341 | 475 | 561 | 1070 | 2100 | 2560 | 3700 | 10600 |
| 2026-04-28 19:00 | 6.63 | 1010 | 36200 (2011) | 192 (1963) | 2300 | 241 | 341 | 475 | 561 | 1070 | 2100 | 2560 | 3700 | 10600 |
| 2026-04-28 18:30 | 6.63 | 1010 | 36200 (2011) | 192 (1963) | 2300 | 241 | 341 | 475 | 561 | 1070 | 2100 | 2560 | 3700 | 10600 |
| 2026-04-28 18:00 | 6.63 | 1010 | 36200 (2011) | 192 (1963) | 2300 | 241 | 341 | 475 | 561 | 1070 | 2100 | 2560 | 3700 | 10600 |
| 2026-04-28 17:30 | 6.63 | 1010 | 36200 (2011) | 192 (1963) | 2300 | 241 | 341 | 475 | 561 | 1070 | 2100 | 2560 | 3700 | 10600 |
| 2026-04-28 17:00 | 6.62 | 1010 | 36200 (2011) | 192 (1963) | 2300 | 241 | 341 | 475 | 561 | 1070 | 2100 | 2560 | 3700 | 10600 |
| 2026-04-28 16:30 | 6.61 | 1000 | 36200 (2011) | 192 (1963) | 2300 | 241 | 341 | 475 | 561 | 1070 | 2100 | 2560 | 3700 | 10600 |
| 2026-04-28 16:00 | 6.62 | 1010 | 36200 (2011) | 192 (1963) | 2300 | 241 | 341 | 475 | 561 | 1070 | 2100 | 2560 | 3700 | 10600 |
| 2026-04-28 15:30 | 6.63 | 1010 | 36200 (2011) | 192 (1963) | 2300 | 241 | 341 | 475 | 561 | 1070 | 2100 | 2560 | 3700 | 10600 |
| 2026-04-28 15:00 | 6.64 | 1020 | 36200 (2011) | 192 (1963) | 2300 | 241 | 341 | 475 | 561 | 1070 | 2100 | 2560 | 3700 | 10600 |
| 2026-04-28 14:30 | 6.64 | 1020 | 36200 (2011) | 192 (1963) | 2300 | 241 | 341 | 475 | 561 | 1070 | 2100 | 2560 | 3700 | 10600 |
| 2026-04-28 14:00 | 6.64 | 1020 | 36200 (2011) | 192 (1963) | 2300 | 241 | 341 | 475 | 561 | 1070 | 2100 | 2560 | 3700 | 10600 |
| 2026-04-28 13:30 | 6.64 | 1020 | 36200 (2011) | 192 (1963) | 2300 | 241 | 341 | 475 | 561 | 1070 | 2100 | 2560 | 3700 | 10600 |
| 2026-04-28 13:00 | 6.65 | 1030 | 36200 (2011) | 192 (1963) | 2300 | 241 | 341 | 475 | 561 | 1070 | 2100 | 2560 | 3700 | 10600 |
| 2026-04-28 12:30 | 6.65 | 1030 | 36200 (2011) | 192 (1963) | 2300 | 241 | 341 | 475 | 561 | 1070 | 2100 | 2560 | 3700 | 10600 |
| 2026-04-28 12:00 | 6.66 | 1030 | 36200 (2011) | 192 (1963) | 2300 | 241 | 341 | 475 | 561 | 1070 | 2100 | 2560 | 3700 | 10600 |
| 2026-04-28 11:30 | 6.66 | 1030 | 36200 (2011) | 192 (1963) | 2300 | 241 | 341 | 475 | 561 | 1070 | 2100 | 2560 | 3700 | 10600 |
| 2026-04-28 11:00 | 6.67 | 1040 | 36200 (2011) | 192 (1963) | 2300 | 241 | 341 | 475 | 561 | 1070 | 2100 | 2560 | 3700 | 10600 |
| 2026-04-28 10:30 | 6.67 | 1040 | 36200 (2011) | 192 (1963) | 2300 | 241 | 341 | 475 | 561 | 1070 | 2100 | 2560 | 3700 | 10600 |
| 2026-04-28 10:00 | 6.67 | 1040 | 36200 (2011) | 192 (1963) | 2300 | 241 | 341 | 475 | 561 | 1070 | 2100 | 2560 | 3700 | 10600 |
| 2026-04-28 09:30 | 6.68 | 1040 | 36200 (2011) | 192 (1963) | 2300 | 241 | 341 | 475 | 561 | 1070 | 2100 | 2560 | 3700 | 10600 |
| 2026-04-28 09:00 | 6.69 | 1050 | 36200 (2011) | 192 (1963) | 2300 | 241 | 341 | 475 | 561 | 1070 | 2100 | 2560 | 3700 | 10600 |
| 2026-04-28 08:30 | 6.69 | 1050 | 36200 (2011) | 192 (1963) | 2300 | 241 | 341 | 475 | 561 | 1070 | 2100 | 2560 | 3700 | 10600 |
| 2026-04-28 08:00 | 6.70 | 1060 | 36200 (2011) | 192 (1963) | 2300 | 241 | 341 | 475 | 561 | 1070 | 2100 | 2560 | 3700 | 10600 |
| 2026-04-28 07:30 | 6.70 | 1060 | 36200 (2011) | 192 (1963) | 2300 | 241 | 341 | 475 | 561 | 1070 | 2100 | 2560 | 3700 | 10600 |
| 2026-04-28 07:00 | 6.71 | 1060 | 36200 (2011) | 192 (1963) | 2300 | 241 | 341 | 475 | 561 | 1070 | 2100 | 2560 | 3700 | 10600 |
| 2026-04-28 06:30 | 6.71 | 1060 | 36200 (2011) | 192 (1963) | 2300 | 241 | 341 | 475 | 561 | 1070 | 2100 | 2560 | 3700 | 10600 |
| 2026-04-28 06:00 | 6.72 | 1070 | 36200 (2011) | 192 (1963) | 2300 | 241 | 341 | 475 | 561 | 1070 | 2100 | 2560 | 3700 | 10600 |
| 2026-04-28 05:30 | 6.73 | 1070 | 36200 (2011) | 192 (1963) | 2300 | 241 | 341 | 475 | 561 | 1070 | 2100 | 2560 | 3700 | 10600 |
| 2026-04-28 05:00 | 6.73 | 1070 | 36200 (2011) | 192 (1963) | 2300 | 241 | 341 | 475 | 561 | 1070 | 2100 | 2560 | 3700 | 10600 |
| 2026-04-28 04:30 | 6.73 | 1070 | 36200 (2011) | 192 (1963) | 2300 | 241 | 341 | 475 | 561 | 1070 | 2100 | 2560 | 3700 | 10600 |
| 2026-04-28 04:00 | 6.74 | 1080 | 36200 (2011) | 192 (1963) | 2300 | 241 | 341 | 475 | 561 | 1070 | 2100 | 2560 | 3700 | 10600 |
| 2026-04-28 03:30 | 6.74 | 1080 | 36200 (2011) | 192 (1963) | 2300 | 241 | 341 | 475 | 561 | 1070 | 2100 | 2560 | 3700 | 10600 |
| 2026-04-28 03:00 | 6.75 | 1090 | 36200 (2011) | 192 (1963) | 2300 | 241 | 341 | 475 | 561 | 1070 | 2100 | 2560 | 3700 | 10600 |
| 2026-04-28 02:30 | 6.76 | 1090 | 36200 (2011) | 192 (1963) | 2300 | 241 | 341 | 475 | 561 | 1070 | 2100 | 2560 | 3700 | 10600 |
| 2026-04-28 02:00 | 6.77 | 1100 | 36200 (2011) | 192 (1963) | 2300 | 241 | 341 | 475 | 561 | 1070 | 2100 | 2560 | 3700 | 10600 |
| 2026-04-28 01:30 | 6.78 | 1100 | 36200 (2011) | 192 (1963) | 2300 | 241 | 341 | 475 | 561 | 1070 | 2100 | 2560 | 3700 | 10600 |
| 2026-04-28 01:00 | 6.78 | 1100 | 36200 (2011) | 192 (1963) | 2300 | 241 | 341 | 475 | 561 | 1070 | 2100 | 2560 | 3700 | 10600 |
| 2026-04-28 00:30 | 6.78 | 1100 | 36200 (2011) | 192 (1963) | 2300 | 241 | 341 | 475 | 561 | 1070 | 2100 | 2560 | 3700 | 10600 |
| 2026-04-28 00:00 | 6.78 | 1100 | 36200 (2011) | 192 (1963) | 2300 | 241 | 341 | 475 | 561 | 1070 | 2100 | 2560 | 3700 | 10600 |
| 2026-04-27 23:30 | 6.77 | 1100 | 36200 (2011) | 192 (1963) | 2300 | 241 | 341 | 475 | 561 | 1070 | 2100 | 2560 | 3700 | 10600 |
| 2026-04-27 23:00 | 6.76 | 1090 | 36200 (2011) | 192 (1963) | 2300 | 241 | 341 | 475 | 561 | 1070 | 2100 | 2560 | 3700 | 10600 |
A total of 355 rows are displayed for years 1922 through 2024.